createdAt,value
2018-09-08T00:01:31.686Z,10.10
2018-09-08T00:04:07.271Z,10.10
2018-09-08T00:06:42.889Z,10.10
2018-09-08T00:09:18.420Z,10.20
2018-09-08T00:11:53.730Z,10.30
2018-09-08T00:14:28.919Z,10.20
2018-09-08T00:17:09.441Z,10.30
2018-09-08T00:19:49.930Z,10.30
2018-09-08T00:22:30.590Z,10.40
2018-09-08T00:25:11.149Z,10.40
2018-09-08T00:27:51.613Z,10.40
2018-09-08T00:30:27.308Z,10.40
2018-09-08T00:33:02.910Z,10.40
2018-09-08T00:35:38.575Z,10.40
2018-09-08T00:38:14.011Z,10.40
2018-09-08T00:40:49.583Z,10.50
2018-09-08T00:43:25.157Z,10.50
2018-09-08T00:46:00.432Z,10.50
2018-09-08T00:48:35.879Z,10.50
2018-09-08T00:51:11.175Z,10.60
2018-09-08T00:53:46.897Z,10.60
2018-09-08T00:56:22.269Z,10.60
2018-09-08T00:59:02.746Z,10.60
2018-09-08T01:01:38.089Z,10.60
2018-09-08T01:04:13.429Z,10.50
2018-09-08T01:06:48.828Z,10.60
2018-09-08T01:09:24.279Z,10.50
2018-09-08T01:11:59.677Z,10.50
2018-09-08T01:14:35.447Z,10.50
2018-09-08T01:17:11.148Z,10.40
2018-09-08T01:19:46.685Z,10.40
2018-09-08T01:22:22.249Z,10.40
2018-09-08T01:24:57.607Z,10.30
2018-09-08T01:27:32.887Z,10.30
2018-09-08T01:30:08.287Z,10.30
2018-09-08T01:32:43.528Z,10.30
2018-09-08T01:35:18.966Z,10.30
2018-09-08T01:37:54.129Z,10.20
2018-09-08T01:40:29.517Z,10.20
2018-09-08T01:43:04.942Z,10.20
2018-09-08T01:45:40.606Z,10.10
2018-09-08T01:48:16.051Z,10.10
2018-09-08T01:50:51.549Z,10.10
2018-09-08T01:53:26.627Z,10.10
2018-09-08T01:56:02.027Z,10.10
2018-09-08T01:58:37.433Z,10.10
2018-09-08T02:01:12.840Z,10.00
2018-09-08T02:03:48.407Z,10.00
2018-09-08T02:06:23.664Z,10.00
2018-09-08T02:08:59.199Z,10.00
2018-09-08T02:11:34.741Z,10.00
2018-09-08T02:14:10.059Z,10.00
2018-09-08T02:16:45.475Z,10.00
2018-09-08T02:19:20.947Z,9.90
2018-09-08T02:21:56.453Z,9.90
2018-09-08T02:24:32.019Z,9.90
2018-09-08T02:27:07.609Z,10.00
2018-09-08T02:29:43.003Z,10.10
2018-09-08T02:32:18.309Z,10.00
2018-09-08T02:34:53.811Z,10.00
2018-09-08T02:37:29.278Z,10.00
2018-09-08T02:40:04.649Z,10.00
2018-09-08T02:42:40.107Z,10.00
2018-09-08T02:45:15.560Z,10.00
2018-09-08T02:47:51.609Z,10.00
2018-09-08T02:50:29.733Z,10.00
2018-09-08T02:53:04.204Z,10.10
2018-09-08T02:55:38.493Z,10.10
2018-09-08T02:58:12.340Z,10.00
2018-09-08T03:00:46.396Z,10.10
2018-09-08T03:03:20.331Z,10.10
2018-09-08T03:05:54.175Z,10.20
2018-09-08T03:08:28.134Z,10.10
2018-09-08T03:11:02.089Z,10.10
2018-09-08T03:13:35.950Z,10.20
2018-09-08T03:16:09.842Z,10.20
2018-09-08T03:18:43.719Z,10.10
2018-09-08T03:21:17.714Z,10.00
2018-09-08T03:23:51.889Z,10.10
2018-09-08T03:26:25.854Z,10.10
2018-09-08T03:28:59.802Z,10.10
2018-09-08T03:31:33.767Z,10.10
2018-09-08T03:34:08.003Z,10.00
2018-09-08T03:36:42.046Z,10.10
2018-09-08T03:39:16.006Z,10.10
2018-09-08T03:41:50.066Z,10.10
2018-09-08T03:44:24.029Z,10.10
2018-09-08T03:46:57.866Z,10.10
2018-09-08T03:49:31.919Z,10.10
2018-09-08T03:52:05.767Z,10.20
2018-09-08T03:54:39.726Z,10.20
2018-09-08T03:57:13.687Z,10.20
2018-09-08T03:59:47.817Z,10.30
2018-09-08T04:02:21.752Z,10.30
2018-09-08T04:04:57.027Z,10.30
2018-09-08T04:07:32.408Z,10.30
2018-09-08T04:10:07.839Z,10.40
2018-09-08T04:12:43.279Z,10.40
2018-09-08T04:15:18.806Z,10.40
2018-09-08T04:17:54.379Z,10.40
2018-09-08T04:20:29.872Z,10.40
2018-09-08T04:23:05.193Z,10.30
2018-09-08T04:25:40.619Z,10.30
2018-09-08T04:28:16.058Z,10.40
2018-09-08T04:30:51.427Z,10.30
2018-09-08T04:33:26.836Z,10.30
2018-09-08T04:36:02.828Z,10.40
2018-09-08T04:38:38.411Z,10.40
2018-09-08T04:41:13.875Z,10.40
2018-09-08T04:43:49.579Z,10.30
2018-09-08T04:46:25.095Z,10.40
2018-09-08T04:49:00.424Z,10.40
2018-09-08T04:51:35.660Z,10.30
2018-09-08T04:54:11.226Z,10.40
2018-09-08T04:56:46.846Z,10.30
2018-09-08T04:59:22.146Z,10.40
2018-09-08T05:01:57.558Z,10.40
2018-09-08T05:04:32.659Z,10.40
2018-09-08T05:07:08.219Z,10.40
2018-09-08T05:09:43.468Z,10.40
2018-09-08T05:12:18.914Z,10.40
2018-09-08T05:14:54.460Z,10.50
2018-09-08T05:17:29.888Z,10.50
2018-09-08T05:20:05.686Z,10.50
2018-09-08T05:22:41.160Z,10.50
2018-09-08T05:25:16.586Z,10.50
2018-09-08T05:27:52.165Z,10.60
2018-09-08T05:30:27.568Z,10.60
2018-09-08T05:33:03.033Z,10.60
2018-09-08T05:35:38.605Z,10.70
2018-09-08T05:38:14.079Z,10.70
2018-09-08T05:40:49.476Z,10.70
2018-09-08T05:43:24.849Z,10.80
2018-09-08T05:46:00.219Z,10.80
2018-09-08T05:48:35.831Z,10.80
2018-09-08T05:51:11.186Z,10.80
2018-09-08T05:53:46.479Z,10.90
2018-09-08T05:56:21.706Z,10.90
2018-09-08T05:58:57.026Z,10.90
2018-09-08T06:01:32.325Z,11.00
2018-09-08T06:04:07.919Z,11.00
2018-09-08T06:06:43.240Z,11.10
2018-09-08T06:09:18.619Z,11.20
2018-09-08T06:11:53.936Z,11.30
2018-09-08T06:14:30.229Z,11.40
2018-09-08T06:17:05.869Z,11.40
2018-09-08T06:19:41.287Z,11.50
2018-09-08T06:22:16.578Z,11.50
2018-09-08T06:24:52.070Z,11.50
2018-09-08T06:27:27.532Z,11.60
2018-09-08T06:30:02.976Z,11.60
2018-09-08T06:32:38.575Z,11.70
2018-09-08T06:35:14.120Z,11.70
2018-09-08T06:37:49.278Z,11.80
2018-09-08T06:40:24.648Z,11.80
2018-09-08T06:42:59.889Z,11.90
2018-09-08T06:45:35.388Z,11.90
2018-09-08T06:48:10.705Z,11.90
2018-09-08T06:50:46.155Z,12.00
2018-09-08T06:53:21.585Z,12.10
2018-09-08T06:55:56.766Z,12.00
2018-09-08T06:58:32.118Z,12.20
2018-09-08T07:01:07.456Z,12.40
2018-09-08T07:03:42.806Z,12.50
2018-09-08T07:06:18.107Z,12.70
2018-09-08T07:08:53.315Z,12.80
2018-09-08T07:11:28.487Z,12.90
2018-09-08T07:14:03.940Z,12.90
2018-09-08T07:16:39.375Z,12.80
2018-09-08T07:19:14.740Z,12.70
2018-09-08T07:21:50.587Z,12.80
2018-09-08T07:24:26.159Z,13.00
2018-09-08T07:27:01.478Z,13.10
2018-09-08T07:29:36.958Z,13.20
2018-09-08T07:32:12.389Z,13.20
2018-09-08T07:34:47.818Z,13.20
2018-09-08T07:37:23.243Z,13.30
2018-09-08T07:39:58.738Z,13.40
2018-09-08T07:42:34.185Z,13.40
2018-09-08T07:45:09.725Z,13.40
2018-09-08T07:47:44.962Z,13.50
2018-09-08T07:50:20.416Z,13.50
2018-09-08T07:52:55.677Z,13.50
2018-09-08T07:55:31.158Z,13.40
2018-09-08T07:58:06.805Z,13.30
2018-09-08T08:00:42.379Z,13.40
2018-09-08T08:03:17.909Z,13.50
2018-09-08T08:05:53.285Z,13.60
2018-09-08T08:08:28.636Z,13.60
2018-09-08T08:11:04.337Z,13.70
2018-09-08T08:13:39.849Z,13.80
2018-09-08T08:16:15.467Z,14.10
2018-09-08T08:18:50.956Z,14.20
2018-09-08T08:21:26.255Z,14.30
2018-09-08T08:24:01.694Z,14.40
2018-09-08T08:26:37.085Z,14.30
2018-09-08T08:29:12.475Z,14.40
2018-09-08T08:31:47.825Z,14.60
2018-09-08T08:34:23.336Z,14.50
2018-09-08T08:36:58.785Z,14.60
2018-09-08T08:39:34.268Z,14.60
2018-09-08T08:42:09.835Z,14.70
2018-09-08T08:44:45.165Z,14.60
2018-09-08T08:47:20.724Z,14.70
2018-09-08T08:50:07.225Z,14.80
2018-09-08T08:53:54.605Z,14.80
2018-09-08T08:56:30.038Z,14.70
2018-09-08T08:59:05.389Z,14.60
2018-09-08T09:01:41.038Z,14.60
2018-09-08T09:04:16.295Z,14.60
2018-09-08T09:06:51.706Z,14.60
2018-09-08T09:09:27.158Z,14.60
2018-09-08T09:12:02.868Z,14.60
2018-09-08T09:14:38.347Z,14.80
2018-09-08T09:17:13.780Z,14.80
2018-09-08T09:20:00.243Z,15.00
2018-09-08T09:22:46.703Z,15.10
2018-09-08T09:25:22.415Z,15.30
2018-09-08T09:27:57.832Z,15.50
2018-09-08T09:30:33.298Z,15.50
2018-09-08T09:33:08.616Z,15.40
2018-09-08T09:35:43.891Z,15.40
2018-09-08T09:38:19.361Z,15.40
2018-09-08T09:40:54.905Z,15.40
2018-09-08T09:43:30.259Z,15.40
2018-09-08T09:46:05.505Z,15.60
2018-09-08T09:48:40.847Z,15.90
2018-09-08T09:51:16.128Z,16.10
2018-09-08T09:53:51.527Z,16.30
2018-09-08T09:56:27.448Z,16.50
2018-09-08T09:59:02.827Z,16.60
2018-09-08T10:01:48.404Z,16.80
2018-09-08T10:04:24.035Z,16.80
2018-09-08T10:06:59.627Z,17.10
2018-09-08T10:09:35.135Z,17.20
2018-09-08T10:12:10.451Z,17.20
2018-09-08T10:14:46.178Z,17.10
2018-09-08T10:17:21.705Z,17.20
2018-09-08T10:19:57.257Z,17.10
2018-09-08T10:22:32.695Z,17.20
2018-09-08T10:25:09.798Z,17.20
2018-09-08T10:27:45.957Z,17.50
2018-09-08T10:30:21.427Z,17.50
2018-09-08T10:32:56.815Z,17.60
2018-09-08T10:35:32.228Z,17.90
2018-09-08T10:38:07.546Z,18.10
2018-09-08T10:40:42.829Z,18.10
2018-09-08T10:43:18.325Z,18.30
2018-09-08T10:45:53.666Z,18.50
2018-09-08T10:48:28.908Z,18.90
2018-09-08T10:51:49.184Z,18.90
2018-09-08T10:54:24.485Z,18.60
2018-09-08T10:56:59.998Z,18.50
2018-09-08T10:59:35.397Z,18.60
2018-09-08T11:02:11.174Z,19.00
2018-09-08T11:04:46.516Z,19.30
2018-09-08T11:07:21.918Z,19.40
2018-09-08T11:09:57.234Z,19.40
2018-09-08T11:12:32.725Z,19.10
2018-09-08T11:15:09.276Z,18.80
2018-09-08T11:17:44.645Z,18.80
2018-09-08T11:20:20.292Z,18.90
2018-09-08T11:22:55.788Z,19.00
2018-09-08T11:25:31.195Z,18.90
2018-09-08T11:28:06.425Z,18.80
2018-09-08T11:30:41.809Z,19.00
2018-09-08T11:33:17.389Z,18.80
2018-09-08T11:35:53.072Z,19.10
2018-09-08T11:38:28.516Z,19.40
2018-09-08T11:41:03.806Z,19.50
2018-09-08T11:43:39.165Z,19.50
2018-09-08T11:46:14.788Z,19.50
2018-09-08T11:48:50.235Z,19.80
2018-09-08T11:51:25.688Z,19.90
2018-09-08T11:54:01.349Z,19.90
2018-09-08T11:56:36.706Z,19.90
2018-09-08T11:59:12.056Z,19.80
2018-09-08T12:01:47.399Z,19.90
2018-09-08T12:04:22.894Z,19.80
2018-09-08T12:06:58.326Z,19.90
2018-09-08T12:09:33.878Z,20.10
2018-09-08T12:12:09.385Z,19.80
2018-09-08T12:14:45.195Z,19.70
2018-09-08T12:17:20.861Z,19.50
2018-09-08T12:19:56.519Z,19.40
2018-09-08T12:22:31.943Z,19.50
2018-09-08T12:25:07.426Z,19.40
2018-09-08T12:27:42.869Z,19.30
2018-09-08T12:30:18.382Z,19.30
2018-09-08T12:32:53.683Z,19.20
2018-09-08T12:35:29.224Z,19.50
2018-09-08T12:38:04.767Z,19.60
2018-09-08T12:40:40.138Z,19.60
2018-09-08T12:43:15.476Z,19.60
2018-09-08T12:45:50.786Z,19.40
2018-09-08T12:48:26.178Z,19.50
2018-09-08T12:51:01.668Z,19.50
2018-09-08T12:53:36.991Z,19.50
2018-09-08T12:56:12.330Z,19.50
2018-09-08T12:58:47.658Z,19.40
2018-09-08T13:01:23.238Z,19.30
2018-09-08T13:03:58.799Z,19.30
2018-09-08T13:06:34.448Z,19.20
2018-09-08T13:09:10.108Z,19.10
2018-09-08T13:11:45.547Z,18.90
2018-09-08T13:14:20.887Z,18.80
2018-09-08T13:16:56.158Z,18.80
2018-09-08T13:19:31.814Z,19.00
2018-09-08T13:22:07.275Z,19.20
2018-09-08T13:24:42.715Z,19.20
2018-09-08T13:27:18.459Z,19.30
2018-09-08T13:29:53.997Z,19.20
2018-09-08T13:32:29.669Z,19.10
2018-09-08T13:35:05.287Z,19.10
2018-09-08T13:37:40.708Z,19.20
2018-09-08T13:40:16.015Z,19.30
2018-09-08T13:42:51.455Z,19.30
2018-09-08T13:45:26.867Z,19.20
2018-09-08T13:48:02.155Z,19.20
2018-09-08T13:50:37.473Z,19.10
2018-09-08T13:53:12.854Z,19.00
2018-09-08T13:55:48.076Z,19.00
2018-09-08T13:58:23.585Z,19.10
2018-09-08T14:00:59.041Z,18.90
2018-09-08T14:03:34.707Z,18.70
2018-09-08T14:06:10.686Z,18.60
2018-09-08T14:08:45.973Z,18.80
2018-09-08T14:11:21.305Z,18.90
2018-09-08T14:13:56.670Z,19.00
2018-09-08T14:16:31.837Z,19.30
2018-09-08T14:19:07.398Z,19.60
2018-09-08T14:21:42.786Z,19.80
2018-09-08T14:24:18.115Z,19.70
2018-09-08T14:26:53.572Z,19.40
2018-09-08T14:29:29.020Z,19.10
2018-09-08T14:32:04.456Z,19.20
2018-09-08T14:34:39.815Z,19.50
2018-09-08T14:37:15.480Z,19.50
2018-09-08T14:39:50.978Z,19.60
2018-09-08T14:42:26.319Z,19.50
2018-09-08T14:45:01.736Z,19.40
2018-09-08T14:47:37.404Z,19.50
2018-09-08T14:50:12.857Z,19.40
2018-09-08T14:52:48.435Z,19.40
2018-09-08T14:55:23.775Z,19.40
2018-09-08T14:57:59.215Z,19.50
2018-09-08T15:00:34.598Z,19.40
2018-09-08T15:03:09.925Z,19.30
2018-09-08T15:05:45.164Z,19.10
2018-09-08T15:08:20.946Z,18.90
2018-09-08T15:10:56.285Z,18.80
2018-09-08T15:13:31.627Z,18.80
2018-09-08T15:16:07.136Z,18.80
2018-09-08T15:18:42.660Z,18.70
2018-09-08T15:21:18.317Z,18.70
2018-09-08T15:23:54.176Z,18.80
2018-09-08T15:26:29.684Z,18.80
2018-09-08T15:29:05.154Z,18.90
2018-09-08T15:31:40.615Z,19.00
2018-09-08T15:34:15.757Z,18.80
2018-09-08T15:36:51.355Z,18.70
2018-09-08T15:39:26.775Z,18.50
2018-09-08T15:42:02.186Z,18.40
2018-09-08T15:44:37.385Z,18.30
2018-09-08T15:47:12.999Z,18.20
2018-09-08T15:49:48.400Z,18.20
2018-09-08T15:52:23.595Z,18.40
2018-09-08T15:54:59.035Z,18.40
2018-09-08T15:57:34.408Z,18.30
2018-09-08T16:00:10.024Z,18.40
2018-09-08T16:02:45.362Z,18.20
2018-09-08T16:05:20.890Z,18.20
2018-09-08T16:07:56.556Z,18.10
2018-09-08T16:10:33.578Z,18.20
2018-09-08T16:13:09.056Z,18.20
2018-09-08T16:15:44.458Z,18.20
2018-09-08T16:18:19.888Z,18.10
2018-09-08T16:20:55.255Z,18.10
2018-09-08T16:23:30.497Z,18.20
2018-09-08T16:26:05.878Z,18.00
2018-09-08T16:28:41.336Z,17.90
2018-09-08T16:31:16.720Z,17.70
2018-09-08T16:33:52.027Z,17.60
2018-09-08T16:36:27.506Z,17.50
2018-09-08T16:39:02.775Z,17.40
2018-09-08T16:41:38.349Z,17.30
2018-09-08T16:44:13.793Z,17.20
2018-09-08T16:46:49.225Z,17.10
2018-09-08T16:49:24.826Z,17.00
2018-09-08T16:52:00.141Z,17.00
2018-09-08T16:54:35.715Z,16.90
2018-09-08T16:57:11.234Z,16.80
2018-09-08T16:59:46.527Z,16.80
2018-09-08T17:02:22.207Z,16.70
2018-09-08T17:04:57.646Z,16.70
2018-09-08T17:07:33.191Z,16.70
2018-09-08T17:10:08.847Z,16.70
2018-09-08T17:12:44.408Z,16.70
2018-09-08T17:15:19.824Z,16.60
2018-09-08T17:17:55.228Z,16.50
2018-09-08T17:20:30.767Z,16.40
2018-09-08T17:23:06.478Z,16.20
2018-09-08T17:25:41.740Z,16.10
2018-09-08T17:28:17.115Z,15.90
2018-09-08T17:30:52.775Z,15.80
2018-09-08T17:33:28.370Z,15.70
2018-09-08T17:36:03.897Z,15.70
2018-09-08T17:38:39.264Z,15.60
2018-09-08T17:41:14.829Z,15.60
2018-09-08T17:43:50.335Z,15.60
2018-09-08T17:46:25.738Z,15.50
2018-09-08T17:49:01.481Z,15.40
2018-09-08T17:51:37.005Z,15.30
2018-09-08T17:54:12.668Z,15.30
2018-09-08T17:56:48.246Z,15.20
2018-09-08T17:59:23.488Z,15.10
2018-09-08T18:01:59.079Z,14.90
2018-09-08T18:04:34.498Z,14.80
2018-09-08T18:07:13.560Z,14.70
2018-09-08T18:09:49.196Z,14.60
2018-09-08T18:12:24.799Z,14.60
2018-09-08T18:15:00.349Z,14.50
2018-09-08T18:17:35.923Z,14.40
2018-09-08T18:20:11.235Z,14.30
2018-09-08T18:22:46.498Z,14.30
2018-09-08T18:25:21.959Z,14.30
2018-09-08T18:27:57.438Z,14.30
2018-09-08T18:30:32.989Z,14.30
2018-09-08T18:33:08.379Z,14.20
2018-09-08T18:35:43.665Z,14.30
2018-09-08T18:38:19.286Z,14.30
2018-09-08T18:40:54.645Z,14.30
2018-09-08T18:43:29.864Z,14.20
2018-09-08T18:46:05.100Z,14.20
2018-09-08T18:48:40.459Z,14.20
2018-09-08T18:51:15.906Z,14.30
2018-09-08T18:53:51.256Z,14.40
2018-09-08T18:56:26.706Z,14.50
2018-09-08T18:59:02.038Z,14.60
2018-09-08T19:01:37.388Z,14.60
2018-09-08T19:04:12.948Z,14.70
2018-09-08T19:06:48.456Z,14.70
2018-09-08T19:09:24.145Z,14.80
2018-09-08T19:11:59.579Z,14.80
2018-09-08T19:14:39.905Z,14.80
2018-09-08T19:17:15.355Z,14.80
2018-09-08T19:19:52.945Z,14.70
2018-09-08T19:22:28.495Z,14.70
2018-09-08T19:25:04.238Z,14.70
2018-09-08T19:27:39.637Z,14.70
2018-09-08T19:30:14.895Z,14.70
2018-09-08T19:32:50.342Z,14.70
2018-09-08T19:35:31.217Z,14.70
2018-09-08T19:38:07.046Z,14.60
2018-09-08T19:40:45.836Z,14.60
2018-09-08T19:43:21.305Z,14.60
2018-09-08T19:45:56.964Z,14.60
2018-09-08T19:48:32.405Z,14.70
2018-09-08T19:51:08.068Z,14.70
2018-09-08T19:53:48.530Z,14.60
2018-09-08T19:56:29.069Z,14.60
2018-09-08T19:59:04.546Z,14.60
2018-09-08T20:01:39.949Z,14.50
2018-09-08T20:04:15.196Z,14.50
2018-09-08T20:06:50.443Z,14.50
2018-09-08T20:09:25.773Z,14.40
2018-09-08T20:12:01.059Z,14.40
2018-09-08T20:14:36.340Z,14.40
2018-09-08T20:17:11.661Z,14.50
2018-09-08T20:19:51.889Z,14.50
2018-09-08T20:22:28.176Z,14.50
2018-09-08T20:25:03.800Z,14.60
2018-09-08T20:27:39.308Z,14.50
2018-09-08T20:30:14.835Z,14.50
2018-09-08T20:32:50.270Z,14.50
2018-09-08T20:35:25.617Z,14.60
2018-09-08T20:38:00.905Z,14.60
2018-09-08T20:40:36.325Z,14.60
2018-09-08T20:43:11.635Z,14.70
2018-09-08T20:45:47.386Z,14.60
2018-09-08T20:48:22.997Z,14.50
2018-09-08T20:50:58.547Z,14.50
2018-09-08T20:53:33.795Z,14.50
2018-09-08T20:56:09.135Z,14.50
2018-09-08T20:58:44.555Z,14.60
2018-09-08T21:01:19.929Z,14.50
2018-09-08T21:03:55.289Z,14.50
2018-09-08T21:06:30.575Z,14.40
2018-09-08T21:09:06.640Z,14.40
2018-09-08T21:11:42.286Z,14.30
2018-09-08T21:14:17.749Z,14.20
2018-09-08T21:16:53.555Z,14.20
2018-09-08T21:19:29.142Z,14.20
2018-09-08T21:22:04.508Z,14.10
2018-09-08T21:24:39.977Z,14.00
2018-09-08T21:27:15.426Z,14.00
2018-09-08T21:29:50.801Z,14.00
2018-09-08T21:32:26.192Z,14.00
2018-09-08T21:35:01.485Z,14.10
2018-09-08T21:37:36.828Z,14.00
2018-09-08T21:40:12.149Z,14.10
2018-09-08T21:42:47.516Z,14.10
2018-09-08T21:45:22.659Z,14.10
2018-09-08T21:47:58.158Z,14.00
2018-09-08T21:50:33.600Z,13.90
2018-09-08T21:53:08.855Z,14.00
2018-09-08T21:55:44.295Z,14.00
2018-09-08T21:58:19.489Z,14.00
2018-09-08T22:00:56.001Z,14.00
2018-09-08T22:03:31.255Z,14.00
2018-09-08T22:06:06.707Z,13.90
2018-09-08T22:08:42.122Z,14.00
2018-09-08T22:11:17.626Z,14.00
2018-09-08T22:13:53.067Z,13.90
2018-09-08T22:16:28.689Z,13.90
2018-09-08T22:19:04.168Z,13.90
2018-09-08T22:21:39.676Z,14.00
2018-09-08T22:24:15.128Z,14.00
2018-09-08T22:26:50.738Z,13.90
2018-09-08T22:29:26.276Z,13.90
2018-09-08T22:32:01.791Z,13.80
2018-09-08T22:34:37.069Z,13.70
2018-09-08T22:37:12.449Z,13.70
2018-09-08T22:39:47.888Z,13.80
2018-09-08T22:42:23.409Z,13.80
2018-09-08T22:44:58.919Z,13.80
2018-09-08T22:47:34.529Z,13.80
2018-09-08T22:50:09.890Z,13.80
2018-09-08T22:52:45.469Z,13.90
2018-09-08T22:55:20.949Z,13.80
2018-09-08T22:57:56.568Z,13.80
2018-09-08T23:00:31.999Z,13.90
2018-09-08T23:03:07.809Z,13.90
2018-09-08T23:05:43.041Z,13.90
2018-09-08T23:08:18.458Z,13.90
2018-09-08T23:10:53.676Z,13.90
2018-09-08T23:13:29.189Z,13.80
2018-09-08T23:16:04.568Z,13.80
2018-09-08T23:18:39.838Z,13.80
2018-09-08T23:21:15.395Z,13.80
2018-09-08T23:23:50.698Z,13.90
2018-09-08T23:26:26.059Z,13.90
2018-09-08T23:29:01.351Z,13.90
2018-09-08T23:31:36.848Z,13.90
2018-09-08T23:34:12.248Z,13.90
2018-09-08T23:36:47.587Z,14.00
2018-09-08T23:39:23.221Z,14.00
2018-09-08T23:41:58.704Z,14.00
2018-09-08T23:44:34.286Z,14.00
2018-09-08T23:47:09.828Z,14.10
2018-09-08T23:49:45.259Z,14.10
2018-09-08T23:52:20.599Z,14.10
2018-09-08T23:54:55.996Z,14.00
2018-09-08T23:57:31.646Z,14.10
